Latest Weather Observations for Cape Grim

IDT60801

Issued at 9:11 am EDT Tuesday 27 February 2024 (issued every 10 minutes, with the page automatically refreshed every 10 minutes)

About weather observations | Map of weather stations | Latest weather observations for TAS | Other Formats
Station Details ID: 091331 Name: CAPE GRIM Lat: -40.68 Lon: 144.69 Height: 86.0 m
Data from the previous 72 hours. | See also: Recent months at Cape Grim
Date/Time
EDT
Temp
°C
App
Temp
°C
Dew
Point
°C
Rel
Hum
%
Delta-T
°C
Wind Press
QNH
hPa
Press
MSL
hPa
Rain since
9am
mm
Dir  Spd
km/h
Gust
km/h
Spd
kts
Gust
kts
27/09:00am 17.9 11.6 13.4 75 2.5 ENE 39 52 21 28 1017.9 1017.7 0.0
27/08:53am 18.0 11.8 13.9 77 2.3 NE 39 57 21 31 1017.9 1017.7 0.0
27/08:30am 17.5 10.5 13.6 78 2.2 ENE 43 52 23 28 1017.5 1017.4 0.0
27/08:00am 16.9 11.4 13.6 81 1.9 ENE 35 46 19 25 1017.4 1017.3 0.0
27/07:30am 16.4 10.8 13.3 82 1.7 ENE 35 46 19 25 1017.6 1017.5 0.0
27/07:00am 16.2 10.1 13.1 82 1.7 ENE 37 48 20 26 1017.6 1017.5 0.0
27/06:30am 16.1 9.9 12.8 81 1.8 ENE 37 46 20 25 1017.3 1017.2 0.0
27/06:00am 16.2 10.5 12.9 81 1.8 ENE 35 43 19 23 1017.4 1017.3 0.0
27/05:30am 16.3 10.5 12.8 80 1.9 NE 35 46 19 25 1017.4 1017.3 0.0
27/05:00am 15.7 11.2 12.6 82 1.7 NE 28 39 15 21 1017.4 1017.3 0.0
27/04:30am 15.5 10.9 12.3 81 1.8 NE 28 33 15 18 1017.4 1017.3 0.0
27/04:00am 15.6 10.6 12.2 80 1.9 NE 30 37 16 20 1017.8 1017.6 0.0
27/03:30am 15.4 10.6 11.6 78 2.1 NE 28 35 15 19 1018.0 1017.8 0.0
27/03:00am 15.1 9.3 10.9 76 2.2 NE 32 39 17 21 1018.1 1017.9 0.0
27/02:30am 14.7 8.9 10.7 77 2.1 NE 32 43 17 23 1018.3 1018.1 0.0
27/02:23am 14.6 9.5 10.6 77 2.1 NE 28 41 15 22 1018.3 1018.1 0.0
27/02:00am 12.5 8.7 9.7 83 1.4 ENE 20 22 11 12 1018.8 1018.6 0.0
27/01:30am 10.7 6.1 8.1 84 1.3 E 22 26 12 14 1019.1 1018.9 0.0
27/01:00am 10.6 5.8 7.5 81 1.5 ESE 22 26 12 14 1019.1 1018.9 0.0
27/12:30am 11.2 6.0 7.3 77 1.9 ESE 24 28 13 15 1019.3 1019.1 0.0
27/12:00am 12.0 8.2 7.5 74 2.2 SE 17 24 9 13 1019.6 1019.4 0.0
 
Date/Time
EDT
Temp
°C
App
Temp
°C
Dew
Point
°C
Rel
Hum
%
Delta-T
°C
Wind Press
QNH
hPa
Press
MSL
hPa
Rain since
9am
mm
Dir  Spd
km/h
Gust
km/h
Spd
kts
Gust
kts
26/11:30pm 12.3 8.5 7.6 73 2.3 S 17 26 9 14 1019.8 1019.6 0.0
26/11:00pm 12.4 8.2 7.3 71 2.5 S 19 26 10 14 1020.1 1019.9 0.0
26/10:30pm 12.8 8.4 7.5 70 2.6 S 20 30 11 16 1020.2 1020.0 0.0
26/10:00pm 13.4 7.6 7.8 69 2.8 S 28 39 15 21 1020.0 1019.8 0.0
26/09:30pm 13.5 7.7 8.1 70 2.7 S 28 41 15 22 1019.8 1019.6 0.0
26/09:00pm 13.7 7.0 8.1 69 2.8 SSW 33 43 18 23 1020.0 1019.8 0.0
26/08:30pm 14.0 7.0 8.4 69 2.8 SSW 35 44 19 24 1019.6 1019.4 0.0
26/08:00pm 14.1 6.7 8.3 68 2.9 SSW 37 50 20 27 1019.6 1019.4 0.0
26/07:30pm 14.4 7.3 8.1 66 3.2 SSW 35 46 19 25 1019.4 1019.2 0.0
26/07:00pm 14.7 8.1 8.4 66 3.2 SW 33 48 18 26 1019.6 1019.4 0.0
26/06:30pm 15.0 7.9 8.0 63 3.5 SSW 35 48 19 26 1019.1 1018.9 0.0
26/06:00pm 15.5 8.7 7.8 60 3.9 SSW 33 44 18 24 1019.2 1019.0 0.0
26/05:51pm 15.5 9.0 8.3 62 3.7 SSW 32 50 17 27 1019.2 1019.0 0.0
26/05:30pm 15.4 8.5 7.2 58 4.1 SW 33 46 18 25 1019.2 1019.0 0.0
26/05:00pm 15.5 8.1 6.8 56 4.3 SW 35 52 19 28 1019.1 1018.9 0.0
26/04:30pm 15.7 7.2 7.0 56 4.3 SW 41 52 22 28 1019.6 1019.4 0.0
26/04:00pm 15.8 8.3 8.1 60 3.9 SW 37 50 20 27 1019.5 1019.3 0.0
26/03:30pm 15.9 8.3 7.7 58 4.1 SW 37 54 20 29 1019.8 1019.6 0.0
26/03:00pm 15.7 7.8 6.4 54 4.5 SW 37 50 20 27 1019.9 1019.7 0.0
26/02:30pm 16.0 8.1 6.2 52 4.8 SW 37 50 20 27 1020.2 1020.0 0.0
26/02:19pm 16.5 9.1 6.6 52 4.9 SW 35 54 19 29 1020.3 1020.1 0.0
26/02:00pm 15.7 7.8 6.2 53 4.6 SW 37 52 20 28 1020.4 1020.2 0.0
26/01:30pm 15.7 8.0 7.0 56 4.3 SSW 37 52 20 28 1020.1 1019.9 0.0
26/01:00pm 15.7 8.6 6.4 54 4.5 SSW 33 52 18 28 1020.0 1019.8 0.0
26/12:57pm 15.5 8.5 7.0 57 4.2 SSW 33 52 18 28 1020.0 1019.8 0.0
26/12:30pm 16.1 9.0 8.1 59 4.1 SSW 35 48 19 26 1020.1 1019.9 0.0
26/12:14pm 15.8 8.3 8.1 60 3.9 SSW 37 56 20 30 1020.0 1019.8 0.0
26/12:00pm 15.6 8.0 7.4 58 4.1 SSW 37 50 20 27 1020.1 1019.9 0.0
26/11:30am 15.8 8.9 7.3 57 4.2 SSW 33 44 18 24 1020.2 1020.0 0.0
26/11:00am 15.4 8.4 6.9 57 4.2 SSW 33 46 18 25 1020.0 1019.8 0.0
26/10:30am 15.1 8.1 5.9 54 4.4 SSW 32 41 17 22 1019.6 1019.4 0.0
26/10:00am 14.7 7.6 6.5 58 4.0 SSW 33 46 18 25 1019.4 1019.2 0.0
26/09:30am 14.3 6.5 5.1 54 4.3 SSW 35 44 19 24 1019.3 1019.1 0.0
26/09:00am 14.0 7.5 4.6 53 4.4 S 28 39 15 21 1019.1 1018.9 0.4
26/08:30am 14.0 7.4 5.9 58 3.9 S 30 41 16 22 1018.6 1018.4 0.4
26/08:00am 13.8 7.0 6.9 63 3.4 S 32 44 17 24 1018.3 1018.1 0.4
26/07:30am 13.5 7.5 7.1 65 3.1 SSW 28 44 15 24 1017.5 1017.4 0.4
26/07:00am 13.2 5.3 6.1 62 3.4 SSW 37 50 20 27 1017.1 1017.0 0.4
26/06:30am 13.2 5.3 6.3 63 3.3 SSW 37 50 20 27 1016.8 1016.7 0.4
26/06:04am 13.4 5.8 7.4 67 2.9 SW 37 56 20 30 1016.5 1016.4 0.4
26/06:00am 13.4 6.1 7.4 67 2.9 SSW 35 52 19 28 1016.4 1016.3 0.4
26/05:31am 13.5 5.9 7.5 67 3.0 SSW 37 56 20 30 1016.1 1016.0 0.4
26/05:30am 13.3 5.2 6.9 65 3.1 SSW 39 56 21 30 1016.0 1015.9 0.4
26/05:17am 13.4 5.6 6.7 64 3.2 SSW 37 56 20 30 1016.0 1015.9 0.4
26/05:00am 13.5 5.4 7.1 65 3.1 SSW 39 54 21 29 1015.8 1015.7 0.4
26/04:31am 13.6 4.6 7.4 66 3.0 SW 44 63 24 34 1015.6 1015.5 0.4
26/04:30am 13.7 4.4 7.5 66 3.1 SW 46 63 25 34 1015.6 1015.5 0.4
26/04:09am 13.5 4.7 7.3 66 3.0 SW 43 61 23 33 1015.5 1015.4 0.4
26/04:00am 13.6 4.3 7.4 66 3.0 SW 46 61 25 33 1015.4 1015.3 0.4
26/03:35am 13.8 5.1 7.6 66 3.1 SW 43 61 23 33 1015.4 1015.3 0.4
26/03:30am 13.8 5.2 8.2 69 2.8 SW 43 56 23 30 1015.1 1015.0 0.4
26/03:18am 14.0 5.0 8.8 71 2.6 SW 46 65 25 35 1015.2 1015.1 0.4
26/03:00am 14.0 4.8 8.2 68 2.9 SW 46 57 25 31 1015.2 1015.1 0.4
26/02:40am 14.0 5.0 8.8 71 2.6 SW 46 65 25 35 1015.1 1015.0 0.4
26/02:30am 13.8 4.2 7.8 67 3.0 SW 48 65 26 35 1015.1 1015.0 0.4
26/02:09am 14.3 5.6 8.5 68 2.9 SW 44 63 24 34 1015.0 1014.9 0.4
26/02:00am 14.2 5.2 9.0 71 2.6 SW 46 59 25 32 1015.0 1014.9 0.4
26/01:30am 14.2 4.5 9.0 71 2.7 SW 50 59 27 32 1014.7 1014.6 0.4
26/01:00am 14.5 4.5 9.3 71 2.7 SW 52 65 28 35 1014.6 1014.5 0.4
26/12:30am 14.3 5.6 11.3 82 1.6 SW 48 61 26 33 1014.3 1014.2 0.4
26/12:00am 14.4 6.8 11.9 85 1.4 SW 43 61 23 33 1014.3 1014.2 0.4
 
Date/Time
EDT
Temp
°C
App
Temp
°C
Dew
Point
°C
Rel
Hum
%
Delta-T
°C
Wind Press
QNH
hPa
Press
MSL
hPa
Rain since
9am
mm
Dir  Spd
km/h
Gust
km/h
Spd
kts
Gust
kts
25/11:59pm 14.4 6.8 11.9 85 1.4 SW 43 61 23 33 1014.3 1014.2 0.4
25/11:30pm 15.0 6.9 12.0 82 1.6 SW 46 61 25 33 1014.2 1014.1 0.4
25/11:00pm 15.1 6.8 9.9 71 2.7 SW 44 63 24 34 1014.0 1013.9 0.2
25/10:30pm 14.9 7.3 12.4 85 1.4 SW 44 63 24 34 1014.0 1013.9 0.2
25/10:21pm 15.4 10.2 12.9 85 1.4 WSW 32 54 17 29 1014.0 1013.9 0.2
25/10:00pm 15.3 10.1 13.5 89 1.0 WSW 33 54 18 29 1013.7 1013.6 0.2
25/09:30pm 15.5 9.5 14.4 93 0.6 WSW 39 57 21 31 1013.4 1013.3 0.2
25/09:28pm 15.6 10.1 14.6 94 0.6 W 37 57 20 31 1013.4 1013.3 0.2
25/09:26pm 15.6 10.1 14.6 94 0.6 W 37 57 20 31 1013.2 1013.1 0.2
25/09:00pm 15.7 10.7 14.1 90 0.9 W 33 48 18 26 1013.1 1013.0 0.0
25/08:49pm 16.2 11.4 13.9 86 1.3 W 32 48 17 26 1013.0 1012.9 0.0
25/08:42pm 16.2 11.3 13.7 85 1.4 W 32 48 17 26 1013.1 1013.0 0.0
25/08:30pm 16.2 11.2 13.5 84 1.5 W 32 46 17 25 1012.9 1012.8 0.0
25/08:27pm 16.3 11.7 13.6 84 1.5 W 30 46 16 25 1012.9 1012.8 0.0
25/08:00pm 16.6 11.9 13.3 81 1.9 W 30 39 16 21 1012.8 1012.7 0.0
25/07:30pm 16.6 11.8 12.9 79 2.1 W 30 44 16 24 1012.6 1012.5 0.0
25/07:00pm 17.0 12.2 12.9 77 2.3 W 30 44 16 24 1012.5 1012.4 0.0
25/06:43pm 16.9 12.5 12.8 77 2.3 W 28 46 15 25 1012.3 1012.2 0.0
25/06:30pm 17.0 12.5 12.5 75 2.5 W 28 43 15 23 1012.3 1012.2 0.0
25/06:00pm 17.3 13.2 12.8 75 2.5 W 26 41 14 22 1012.2 1012.1 0.0
25/05:30pm 17.4 12.9 12.7 74 2.6 W 28 43 15 23 1012.5 1012.4 0.0
25/05:00pm 17.1 13.6 13.4 79 2.1 W 24 35 13 19 1012.5 1012.4 0.0
25/04:30pm 17.4 14.1 13.9 80 2.0 W 24 35 13 19 1012.3 1012.2 0.0
25/04:00pm 18.3 15.4 14.0 76 2.5 WNW 22 30 12 16 1012.2 1012.1 0.0
25/03:30pm 18.0 14.4 14.3 79 2.1 WNW 26 37 14 20 1012.7 1012.6 0.0
25/03:00pm 17.0 14.4 13.9 82 1.8 W 20 33 11 18 1012.9 1012.8 0.0
25/02:30pm 17.0 14.1 12.9 77 2.3 W 20 32 11 17 1013.4 1013.3 0.0
25/02:00pm 17.7 14.9 13.2 75 2.5 NW 20 28 11 15 1013.2 1013.1 0.0
25/01:30pm 17.8 13.7 12.7 72 2.9 N 26 33 14 18 1012.3 1012.2 0.0
25/01:00pm 17.6 14.6 12.5 72 2.8 N 20 28 11 15 1012.9 1012.8 0.0
25/12:30pm 17.9 14.8 12.1 69 3.2 N 20 24 11 13 1013.2 1013.1 0.0
25/12:00pm 19.8 17.1 13.0 65 3.9 NNW 19 22 10 12 1014.2 1014.1 0.0
25/11:30am 18.5 16.3 12.0 66 3.6 NNW 15 20 8 11 1014.4 1014.3 0.0
25/11:00am 17.9 16.2 12.4 70 3.1 NNW 13 17 7 9 1014.8 1014.7 0.0
25/10:30am 17.3 16.2 13.0 76 2.4 W 11 17 6 9 1015.1 1015.0 0.0
25/10:00am 17.7 15.9 13.2 75 2.5 W 15 20 8 11 1015.3 1015.2 0.0
25/09:30am 17.0 14.9 12.3 74 2.6 WNW 15 19 8 10 1015.3 1015.2 0.0
25/09:00am 16.4 13.4 12.0 75 2.4 WNW 19 24 10 13 1015.3 1015.2 0.0
25/08:30am 15.7 12.5 11.9 78 2.1 NNW 20 24 11 13 1014.7 1014.6 0.0
25/08:00am 15.6 12.5 12.2 80 1.9 NNW 20 26 11 14 1015.1 1015.0 0.0
25/07:30am 14.9 11.9 12.0 83 1.6 NNE 19 24 10 13 1014.1 1014.0 0.0
25/07:00am 14.5 11.5 11.8 84 1.5 N 19 20 10 11 1014.8 1014.7 0.0
25/06:30am 14.4 11.3 11.7 84 1.5 N 19 22 10 12 1014.7 1014.6 0.0
25/06:00am 13.8 9.6 11.0 83 1.5 NNE 24 28 13 15 1014.1 1014.0 0.0
25/05:30am 14.3 11.4 11.1 81 1.7 N 17 24 9 13 1014.6 1014.5 0.0
25/05:00am 14.2 11.3 11.0 81 1.7 N 17 24 9 13 1014.9 1014.8 0.0
25/04:30am 14.1 10.6 10.9 81 1.7 N 20 28 11 15 1015.1 1015.0 0.0
25/04:00am 14.6 11.6 11.9 84 1.5 N 19 24 10 13 1015.3 1015.2 0.0
25/03:30am 14.3 11.6 11.6 84 1.5 N 17 20 9 11 1015.6 1015.5 0.0
25/03:00am 14.4 11.8 12.1 86 1.2 N 17 24 9 13 1016.1 1016.0 0.0
25/02:30am 13.0 9.8 11.1 88 1.0 NNE 19 20 10 11 1016.2 1016.1 0.0
25/02:00am 11.6 8.4 9.9 89 0.9 NE 17 19 9 10 1016.3 1016.2 0.0
25/01:30am 11.0 8.0 9.1 88 0.9 ENE 15 17 8 9 1016.7 1016.6 0.0
25/01:00am 11.5 9.1 8.7 83 1.4 ESE 11 13 6 7 1017.0 1016.9 0.0
25/12:30am 12.9 11.3 10.1 83 1.4 S 9 11 5 6 1017.6 1017.5 0.0
25/12:00am 12.9 11.2 9.9 82 1.5 S 9 13 5 7 1018.0 1017.8 0.0
 
Date/Time
EDT
Temp
°C
App
Temp
°C
Dew
Point
°C
Rel
Hum
%
Delta-T
°C
Wind Press
QNH
hPa
Press
MSL
hPa
Rain since
9am
mm
Dir  Spd
km/h
Gust
km/h
Spd
kts
Gust
kts
24/11:30pm 13.9 10.5 10.5 80 1.8 SSW 19 24 10 13 1018.3 1018.1 0.0
24/11:00pm 14.0 11.4 10.8 81 1.7 SSW 15 20 8 11 1018.4 1018.2 0.0
24/10:30pm 13.5 10.7 10.1 80 1.8 SSW 15 17 8 9 1018.3 1018.1 0.0
24/10:00pm 12.7 10.1 9.5 81 1.6 S 13 15 7 8 1018.6 1018.4 0.0
24/09:30pm 12.9 10.7 9.5 80 1.7 SSE 11 15 6 8 1018.6 1018.4 0.0
24/09:00pm 14.0 11.3 10.2 78 2.0 S 15 20 8 11 1018.6 1018.4 0.0
24/08:30pm 14.4 10.4 10.6 78 2.0 SSW 22 30 12 16 1018.7 1018.5 0.0
24/08:00pm 14.5 10.4 10.1 75 2.3 SSW 22 32 12 17 1018.7 1018.5 0.0
24/07:30pm 14.9 10.5 10.3 74 2.4 SSW 24 35 13 19 1018.5 1018.3 0.0
24/07:00pm 15.4 9.9 10.6 73 2.5 SW 30 39 16 21 1018.6 1018.4 0.0
24/06:30pm 15.3 9.3 10.1 71 2.7 SW 32 44 17 24 1018.8 1018.6 0.0
24/06:00pm 15.4 9.3 9.7 69 3.0 SW 32 43 17 23 1018.7 1018.5 0.0
24/05:30pm 15.6 9.0 9.9 69 3.0 SW 35 48 19 26 1018.7 1018.5 0.0
24/05:00pm 15.8 8.4 9.7 67 3.2 SW 39 50 21 27 1018.8 1018.6 0.0
24/04:30pm 16.1 9.1 10.0 67 3.2 SW 37 46 20 25 1019.0 1018.8 0.0
24/04:00pm 16.0 9.2 9.2 64 3.5 SW 35 46 19 25 1019.0 1018.8 0.0
24/03:30pm 15.9 8.1 9.6 66 3.3 SW 41 52 22 28 1019.5 1019.3 0.0
24/03:00pm 16.4 9.0 9.8 65 3.5 SW 39 48 21 26 1019.7 1019.5 0.0
24/02:30pm 16.3 8.7 9.0 62 3.8 SW 39 46 21 25 1019.7 1019.5 0.0
24/02:00pm 16.0 8.8 9.2 64 3.5 SW 37 50 20 27 1019.9 1019.7 0.0
24/01:30pm 16.4 8.6 9.6 64 3.6 SW 41 50 22 27 1019.7 1019.5 0.0
24/01:00pm 16.2 8.6 9.2 63 3.6 SW 39 54 21 29 1019.8 1019.6 0.0
24/12:30pm 16.0 9.0 9.9 67 3.2 SW 37 48 20 26 1020.0 1019.8 0.0
24/12:00pm 15.9 9.1 9.3 65 3.4 SW 35 46 19 25 1020.1 1019.9 0.0
24/11:30am 16.0 9.7 9.0 63 3.6 SSW 32 44 17 24 1020.3 1020.1 0.0
24/11:00am 15.6 10.0 8.6 63 3.6 SSW 28 41 15 22 1020.6 1020.4 0.0
24/10:30am 15.3 9.4 9.0 66 3.2 SW 30 46 16 25 1020.2 1020.0 0.0
24/10:00am 15.6 9.8 9.5 67 3.2 SSW 30 41 16 22 1020.1 1019.9 0.0
24/09:30am 14.7 8.3 8.6 67 3.1 SSW 32 43 17 23 1020.0 1019.8 0.0

Other formats

Comma delimited format used in spreadsheet applications
http://www.bom.gov.au/fwo/IDT60801/IDT60801.95954.axf

JavaScript Object Notation format (JSON) in row-major order
http://www.bom.gov.au/fwo/IDT60801/IDT60801.95954.json

Data quality

Most of these data are generated automatically and are frequently updated. Quality checks on data are not normally performed. It is possible for incorrect values to appear. Refer to information at About Latest Weather Observations and please check the disclaimer before using these data.